Time;durP1;ratioP1;P1;durP2;ratioP2;P2;SDS_P1;SDS_P2;PMS_P1;PMS_P2;Temp;Humidity;BMP_temperature;BMP_pressure;BME280_temperature;BME280_humidity;BME280_pressure;Samples;Min_cycle;Max_cycle;Signal;HPM_P1;HPM_P2
2023/03/27 00:00:57;;;;;;;33.95;13.02;;;;;;;5.59;83.08;92110.50;5092175;28;20052;-72
2023/03/27 00:03:26;;;;;;;13.23;7.65;;;;;;;5.61;83.58;92111.84;5091908;28;20044;-72
2023/03/27 00:06:00;;;;;;;13.38;6.75;;;;;;;5.57;83.64;92087.00;5091505;28;20048;-72
2023/03/27 00:08:30;;;;;;;12.43;5.35;;;;;;;5.66;85.35;92102.81;5091710;28;20040;-72
2023/03/27 00:10:57;;;;;;;9.20;5.40;;;;;;;5.56;83.78;92095.66;5091392;28;20519;-72
2023/03/27 00:13:24;;;;;;;6.45;3.55;;;;;;;5.60;83.49;92107.75;5091662;28;20048;-72
2023/03/27 00:15:53;;;;;;;7.13;4.25;;;;;;;5.62;85.21;92105.00;5091247;28;20040;-72
2023/03/27 00:18:24;;;;;;;5.45;2.88;;;;;;;5.64;84.40;92105.56;5091800;28;20159;-72
2023/03/27 00:20:51;;;;;;;5.28;3.08;;;;;;;5.64;83.88;92085.19;5091376;28;20035;-72
2023/03/27 00:23:18;;;;;;;6.85;3.80;;;;;;;5.65;82.41;92091.84;5091563;28;20093;-72
2023/03/27 00:25:48;;;;;;;8.38;3.90;;;;;;;5.79;81.89;92092.53;5091525;28;20131;-72
2023/03/27 00:28:15;;;;;;;6.85;3.53;;;;;;;5.79;82.69;92095.06;5091862;28;20197;-72
2023/03/27 00:30:42;;;;;;;9.15;3.70;;;;;;;5.84;81.51;92102.88;5090961;28;20048;-72
2023/03/27 00:33:11;;;;;;;7.35;3.45;;;;;;;5.84;80.39;92089.38;5091539;28;20048;-72
2023/03/27 00:35:38;;;;;;;8.38;3.67;;;;;;;5.94;78.89;92092.25;5091567;28;20589;-72
2023/03/27 00:38:06;;;;;;;7.72;3.67;;;;;;;5.99;78.81;92091.59;5091175;28;20044;-72
2023/03/27 00:40:33;;;;;;;5.78;2.90;;;;;;;6.04;78.01;92080.78;5091210;28;20048;-72
2023/03/27 00:43:01;;;;;;;5.63;2.90;;;;;;;6.11;77.38;92073.88;5090838;28;20572;-72
2023/03/27 00:45:31;;;;;;;6.00;2.63;;;;;;;6.08;77.30;92053.91;5091185;28;20052;-72
2023/03/27 00:48:02;;;;;;;5.10;2.13;;;;;;;6.31;76.15;92070.34;5090846;28;20088;-72
2023/03/27 00:50:34;;;;;;;4.88;1.83;;;;;;;6.34;76.11;92057.97;5091231;28;20059;-72
2023/03/27 00:53:06;;;;;;;3.53;1.70;;;;;;;6.28;76.43;92029.00;5090517;28;20545;-72
2023/03/27 00:55:37;;;;;;;3.65;1.90;;;;;;;6.61;75.83;92055.13;5091032;28;20055;-72
2023/03/27 00:58:09;;;;;;;4.28;1.60;;;;;;;6.77;74.01;92058.88;5090524;28;20052;-72
2023/03/27 01:00:37;;;;;;;4.30;2.10;;;;;;;6.93;72.49;92060.06;5090602;28;20054;-72
2023/03/27 01:03:05;;;;;;;5.55;2.10;;;;;;;7.07;71.45;92060.69;5090702;28;20048;-72
2023/03/27 01:05:34;;;;;;;4.78;1.90;;;;;;;7.22;70.38;92041.63;5090316;28;20504;-72
2023/03/27 01:08:02;;;;;;;6.13;1.95;;;;;;;7.39;69.54;92034.13;5090394;28;20453;-72
2023/03/27 01:10:40;;;;;;;5.00;1.80;;;;;;;7.31;69.42;92006.34;5090664;28;20048;-72
2023/03/27 01:13:22;;;;;;;5.25;1.52;;;;;;;7.59;68.65;92033.81;5090608;28;20488;-73
2023/03/27 01:15:54;;;;;;;4.45;1.58;;;;;;;7.68;67.83;92025.84;5090697;28;20093;-72
2023/03/27 01:18:36;;;;;;;3.08;1.52;;;;;;;7.74;67.34;92023.16;5090318;28;20109;-73
2023/03/27 01:21:36;;;;;;;3.10;1.40;;;;;;;7.74;66.62;92014.72;5083854;28;20129;-71
2023/03/27 01:24:34;;;;;;;4.72;1.90;;;;;;;7.86;66.46;92020.63;5057457;28;20442;-71
2023/03/27 01:27:05;;;;;;;3.50;1.50;;;;;;;7.87;67.20;92027.28;5045798;28;20465;-71
2023/03/27 01:29:47;;;;;;;3.55;2.08;;;;;;;7.85;68.03;92023.41;5090116;28;20512;-71
2023/03/27 01:32:46;;;;;;;5.40;1.80;;;;;;;8.02;67.98;92033.75;5090099;28;20515;-71
2023/03/27 01:35:28;;;;;;;5.47;2.22;;;;;;;8.07;68.02;92015.97;5084682;28;20044;-71
2023/03/27 01:38:09;;;;;;;3.88;1.83;;;;;;;8.05;68.18;92012.81;5090237;28;20044;-71
2023/03/27 01:40:47;;;;;;;3.67;1.77;;;;;;;8.10;68.83;92004.50;5090220;28;20056;-71
2023/03/27 01:43:18;;;;;;;4.78;2.42;;;;;;;8.21;68.61;92000.38;5089754;28;20496;-71
2023/03/27 01:45:51;;;;;;;3.60;1.85;;;;;;;8.21;68.70;92000.38;5090005;28;20097;-71
2023/03/27 01:48:26;;;;;;;3.22;1.80;;;;;;;8.17;68.88;92002.59;5089751;28;20044;-71
2023/03/27 01:50:57;;;;;;;4.47;1.85;;;;;;;8.19;68.85;92003.13;5089466;28;20470;-71
2023/03/27 01:53:27;;;;;;;4.13;2.00;;;;;;;8.14;69.38;92001.25;5089877;28;20097;-71
2023/03/27 01:56:00;;;;;;;3.38;1.92;;;;;;;8.18;69.27;92006.69;5089656;28;20044;-72
2023/03/27 01:58:32;;;;;;;2.90;1.90;;;;;;;8.18;69.67;91996.47;5089919;28;20044;-72
2023/03/27 02:01:01;;;;;;;3.35;1.83;;;;;;;8.15;69.53;91981.59;5089727;28;20184;-72
2023/03/27 02:03:34;;;;;;;3.67;2.00;;;;;;;8.17;70.20;91982.13;5089582;28;20496;-72
2023/03/27 02:06:06;;;;;;;4.85;2.50;;;;;;;8.13;70.79;91983.56;5089424;28;20461;-72
2023/03/27 02:08:40;;;;;;;3.80;1.92;;;;;;;8.10;71.51;91972.00;5089732;28;20159;-72
2023/03/27 02:11:08;;;;;;;3.13;2.00;;;;;;;8.08;72.00;91976.59;5069314;28;20044;-73
2023/03/27 02:13:39;;;;;;;3.30;1.90;;;;;;;8.08;72.72;91980.91;5079927;28;20101;-72
2023/03/27 02:16:08;;;;;;;3.60;2.20;;;;;;;8.08;73.66;91975.78;5089403;28;20101;-72
2023/03/27 02:18:38;;;;;;;4.47;2.15;;;;;;;8.05;73.38;91978.81;5089630;28;20044;-72
2023/03/27 02:21:06;;;;;;;4.95;2.67;;;;;;;8.00;73.45;91974.34;5089353;28;20094;-73
2023/03/27 02:23:36;;;;;;;4.00;2.30;;;;;;;8.00;73.41;91959.00;5089475;28;20048;-72
2023/03/27 02:26:03;;;;;;;3.42;2.17;;;;;;;7.98;74.03;91959.25;5089327;28;20055;-72
2023/03/27 02:28:42;;;;;;;4.50;2.38;;;;;;;7.98;74.66;91954.16;5089229;28;20044;-72
2023/03/27 02:31:24;;;;;;;4.40;2.45;;;;;;;7.98;74.37;91946.47;5088763;28;20040;-72
2023/03/27 02:34:05;;;;;;;5.57;3.00;;;;;;;7.92;74.29;91928.69;5089383;28;20055;-72
2023/03/27 02:36:40;;;;;;;5.80;3.05;;;;;;;7.91;74.58;91933.00;5089382;28;20052;-72
2023/03/27 02:39:17;;;;;;;6.75;2.90;;;;;;;7.93;74.57;91930.25;5089151;28;20447;-72
2023/03/27 02:41:51;;;;;;;4.88;2.80;;;;;;;7.87;76.55;91921.69;5089094;28;20051;-73
2023/03/27 02:44:30;;;;;;;6.13;2.88;;;;;;;7.80;76.22;91910.81;5089252;28;20048;-72
2023/03/27 02:47:02;;;;;;;5.50;3.13;;;;;;;7.55;76.65;91876.81;5088877;28;20562;-73
2023/03/27 02:49:33;;;;;;;5.28;3.05;;;;;;;7.72;77.22;91906.81;5089175;28;20097;-72
2023/03/27 02:52:03;;;;;;;5.07;2.95;;;;;;;7.57;78.88;91889.38;5088901;28;20093;-72
2023/03/27 02:54:34;;;;;;;7.70;3.22;;;;;;;7.54;79.96;91890.59;5088915;28;20098;-72
2023/03/27 02:57:06;;;;;;;5.22;3.47;;;;;;;7.60;80.25;91901.72;5088509;28;20548;-72
2023/03/27 02:59:41;;;;;;;5.97;3.58;;;;;;;7.53;79.29;91890.81;5089433;28;20145;-72
2023/03/27 03:02:12;;;;;;;5.93;3.65;;;;;;;7.47;80.87;91875.41;5088795;28;20044;-72
2023/03/27 03:04:45;;;;;;;4.30;2.88;;;;;;;7.57;79.42;91887.59;5092131;28;20048;-72
2023/03/27 03:07:13;;;;;;;5.25;2.85;;;;;;;7.57;80.21;91884.25;5093066;28;20130;-73
2023/03/27 03:09:40;;;;;;;4.45;2.95;;;;;;;7.50;82.33;91869.03;5093081;28;20119;-72
2023/03/27 03:12:07;;;;;;;4.20;2.55;;;;;;;7.54;82.81;91857.38;5093121;28;20089;-72
2023/03/27 03:14:38;;;;;;;4.00;2.78;;;;;;;7.53;83.71;91849.94;5092930;28;20052;-72
2023/03/27 03:17:05;;;;;;;3.80;2.70;;;;;;;7.54;84.28;91849.72;5092998;28;20037;-72
2023/03/27 03:19:32;;;;;;;3.47;2.40;;;;;;;7.57;85.00;91848.50;5092676;28;20051;-72
2023/03/27 03:21:59;;;;;;;3.75;2.85;;;;;;;7.63;84.64;91850.16;5093036;28;20048;-72
2023/03/27 03:24:26;;;;;;;4.32;2.72;;;;;;;7.64;84.25;91845.81;5092468;28;20518;-72
2023/03/27 03:26:53;;;;;;;4.25;2.55;;;;;;;7.75;84.03;91847.56;5092836;28;20048;-72
2023/03/27 03:29:20;;;;;;;4.28;2.63;;;;;;;7.78;84.28;91839.44;5092171;28;20044;-72
2023/03/27 03:31:48;;;;;;;4.65;2.80;;;;;;;7.82;84.95;91848.22;5092754;28;20040;-72
2023/03/27 03:34:17;;;;;;;4.03;2.65;;;;;;;7.87;84.58;91848.31;5092518;28;20058;-72
2023/03/27 03:36:47;;;;;;;4.15;2.42;;;;;;;7.91;84.78;91835.84;5092940;28;20047;-72
2023/03/27 03:39:15;;;;;;;3.33;2.50;;;;;;;7.82;85.39;91827.78;5092681;28;20060;-72
2023/03/27 03:41:42;;;;;;;3.67;2.58;;;;;;;7.96;84.44;91840.31;5092087;28;20052;-72
2023/03/27 03:44:09;;;;;;;4.20;2.60;;;;;;;7.97;84.49;91836.75;5092397;28;20385;-72
2023/03/27 03:46:36;;;;;;;4.68;2.60;;;;;;;7.91;85.06;91820.50;5092380;28;20052;-73
2023/03/27 03:49:04;;;;;;;3.95;2.75;;;;;;;7.96;85.17;91833.41;5091868;28;20048;-72
2023/03/27 03:51:31;;;;;;;4.18;2.72;;;;;;;7.95;85.23;91825.94;5092569;28;20093;-72
2023/03/27 03:53:58;;;;;;;4.07;2.90;;;;;;;8.00;84.98;91831.16;5092219;28;20048;-72
2023/03/27 03:56:26;;;;;;;4.05;2.42;;;;;;;8.06;85.42;91832.81;5091671;28;20563;-72
2023/03/27 03:58:53;;;;;;;5.20;3.13;;;;;;;7.97;84.31;91822.16;5092122;28;20070;-72
2023/03/27 04:01:20;;;;;;;5.78;3.55;;;;;;;8.15;83.25;91838.34;5091824;28;20044;-72
2023/03/27 04:03:49;;;;;;;5.10;4.00;;;;;;;8.21;82.93;91840.00;5092035;28;20040;-72
2023/03/27 04:06:19;;;;;;;6.07;3.17;;;;;;;8.28;81.81;91837.28;5091449;28;20044;-72
2023/03/27 04:08:46;;;;;;;7.40;3.55;;;;;;;8.28;82.13;91837.28;5091529;28;20496;-72
2023/03/27 04:11:12;;;;;;;4.90;3.10;;;;;;;8.33;81.34;91827.13;5091784;28;20044;-72
2023/03/27 04:13:39;;;;;;;5.35;3.20;;;;;;;8.34;81.55;91831.25;5091763;28;20044;-72
2023/03/27 04:16:06;;;;;;;4.70;3.17;;;;;;;8.29;81.78;91831.94;5091366;28;20048;-72
2023/03/27 04:18:33;;;;;;;4.28;2.85;;;;;;;8.35;80.52;91843.06;5091877;28;20044;-72
2023/03/27 04:21:01;;;;;;;5.70;2.80;;;;;;;8.36;81.19;91842.03;5091466;28;20064;-72
2023/03/27 04:23:30;;;;;;;4.32;2.88;;;;;;;8.41;80.95;91837.00;5091366;28;20052;-72
2023/03/27 04:25:58;;;;;;;7.78;2.55;;;;;;;8.47;80.68;91845.53;5087783;28;20048;-73
2023/03/27 04:28:26;;;;;;;4.63;3.05;;;;;;;8.48;79.93;91843.78;5071647;28;20170;-72
2023/03/27 04:31:09;;;;;;;4.15;2.67;;;;;;;8.50;80.01;91846.88;5091495;28;20056;-72
2023/03/27 04:33:50;;;;;;;3.92;2.97;;;;;;;8.54;79.68;91842.88;5091108;28;20520;-72
2023/03/27 04:36:18;;;;;;;6.63;3.38;;;;;;;8.42;80.44;91830.88;5091240;28;20052;-72
2023/03/27 04:38:46;;;;;;;6.45;3.28;;;;;;;8.48;80.66;91839.41;5090751;28;20044;-72
2023/03/27 04:41:13;;;;;;;5.35;3.20;;;;;;;8.52;80.87;91842.34;5091147;28;20055;-72
2023/03/27 04:43:40;;;;;;;5.80;3.22;;;;;;;8.42;82.09;91820.66;5091303;28;20110;-72
2023/03/27 04:46:08;;;;;;;4.90;2.92;;;;;;;8.42;84.12;91833.44;5090782;28;20135;-72
2023/03/27 04:48:36;;;;;;;10.38;3.65;;;;;;;8.47;84.02;91821.75;5091133;28;20044;-72
2023/03/27 04:51:04;;;;;;;9.23;3.78;;;;;;;8.49;84.50;91822.28;5090809;28;20086;-72
2023/03/27 04:53:33;;;;;;;6.93;3.55;;;;;;;8.57;84.11;91821.94;5090734;28;20049;-72
2023/03/27 04:56:01;;;;;;;6.35;3.85;;;;;;;8.60;85.06;91824.03;5090680;28;20079;-72
2023/03/27 04:58:28;;;;;;;8.60;4.07;;;;;;;8.68;86.18;91815.19;5091000;28;20048;-72
2023/03/27 05:00:55;;;;;;;8.95;4.25;;;;;;;8.72;84.63;91805.25;5090906;28;20048;-72
2023/03/27 05:03:23;;;;;;;8.05;3.55;;;;;;;8.81;85.26;91816.69;5090424;28;20153;-72
2023/03/27 05:05:50;;;;;;;5.40;3.80;;;;;;;8.91;84.49;91810.94;5070589;28;20036;-72
2023/03/27 05:08:17;;;;;;;8.50;4.60;;;;;;;8.97;84.04;91811.78;5070583;28;20098;-72
2023/03/27 05:10:43;;;;;;;6.28;4.03;;;;;;;9.02;83.55;91807.50;5070463;28;20044;-72
2023/03/27 05:13:12;;;;;;;6.93;4.38;;;;;;;9.05;84.31;91798.56;5070667;28;20205;-72
2023/03/27 05:15:39;;;;;;;8.82;4.90;;;;;;;9.14;83.50;91796.38;5070371;28;20045;-72
2023/03/27 05:18:06;;;;;;;10.65;5.20;;;;;;;9.17;83.58;91783.13;5070254;28;20052;-72
2023/03/27 05:20:33;;;;;;;7.18;3.83;;;;;;;9.15;83.17;91774.88;5077447;28;20044;-72
2023/03/27 05:22:59;;;;;;;6.15;4.20;;;;;;;9.27;83.02;91772.22;5090489;28;20052;-72
2023/03/27 05:25:27;;;;;;;7.10;3.42;;;;;;;9.20;82.67;91757.00;5089936;28;20089;-72
2023/03/27 05:27:54;;;;;;;7.28;3.45;;;;;;;9.41;81.65;91759.84;5089766;28;20056;-72
2023/03/27 05:30:25;;;;;;;6.05;3.22;;;;;;;9.50;81.11;91745.59;5089531;28;20044;-72
2023/03/27 05:32:52;;;;;;;5.15;3.20;;;;;;;9.58;81.36;91737.47;5090178;28;20079;-72
2023/03/27 05:35:21;;;;;;;4.68;3.17;;;;;;;9.72;81.11;91708.91;5089877;28;20097;-73
2023/03/27 05:37:49;;;;;;;4.63;3.20;;;;;;;9.83;80.22;91695.19;5090392;28;20067;-73
2023/03/27 05:40:19;;;;;;;6.18;3.45;;;;;;;9.98;79.49;91691.97;5089904;28;20052;-72
2023/03/27 05:42:47;;;;;;;6.93;3.40;;;;;;;10.07;76.31;91660.75;5089999;28;20048;-72
2023/03/27 05:45:14;;;;;;;7.38;3.30;;;;;;;10.27;76.16;91658.34;5089892;28;20054;-72
2023/03/27 05:47:47;;;;;;;5.78;2.92;;;;;;;10.48;75.20;91657.72;5089654;28;20048;-72
2023/03/27 05:50:14;;;;;;;4.55;2.92;;;;;;;10.53;74.59;91639.78;5089819;28;20233;-72
2023/03/27 05:52:41;;;;;;;5.55;3.15;;;;;;;10.62;73.93;91642.66;5089619;28;20083;-72
2023/03/27 05:55:09;;;;;;;7.53;3.60;;;;;;;10.63;73.27;91628.78;5089916;28;20093;-72
2023/03/27 05:57:38;;;;;;;8.95;3.40;;;;;;;10.66;73.84;91602.63;5089826;28;20044;-72
2023/03/27 06:00:10;;;;;;;5.32;3.58;;;;;;;10.54;73.42;91565.09;5089633;28;20043;-72
2023/03/27 06:02:37;;;;;;;6.35;3.38;;;;;;;10.54;73.18;91554.03;5089284;28;20091;-72
2023/03/27 06:05:09;;;;;;;5.82;3.42;;;;;;;10.50;72.61;91571.75;5089050;28;20050;-72
2023/03/27 06:07:37;;;;;;;7.35;3.47;;;;;;;10.67;72.43;91584.41;5089147;28;20059;-72
2023/03/27 06:10:06;;;;;;;6.40;3.70;;;;;;;10.75;71.85;91579.81;5088960;28;20047;-72
2023/03/27 06:12:33;;;;;;;7.50;3.97;;;;;;;10.73;72.21;91566.47;5089487;28;20131;-72
2023/03/27 06:15:00;;;;;;;5.68;3.90;;;;;;;10.73;72.50;91569.03;5089656;28;20394;-72
2023/03/27 06:17:27;;;;;;;7.85;3.78;;;;;;;10.79;72.85;91568.78;5089490;28;20040;-72
2023/03/27 06:19:54;;;;;;;5.53;3.60;;;;;;;10.77;71.81;91564.91;5095680;28;20048;-72
2023/03/27 06:22:22;;;;;;;7.65;3.33;;;;;;;10.72;73.23;91552.84;5089282;28;20495;-72
2023/03/27 06:24:48;;;;;;;5.00;3.40;;;;;;;10.80;73.18;91560.03;5089238;28;20090;-72
2023/03/27 06:27:15;;;;;;;4.95;3.35;;;;;;;10.81;72.72;91574.47;5089254;28;20056;-72
2023/03/27 06:29:42;;;;;;;6.38;3.47;;;;;;;10.81;71.19;91576.25;5088898;28;20101;-72
2023/03/27 06:32:08;;;;;;;5.45;3.03;;;;;;;10.90;70.98;91579.09;5089295;28;20115;-72
2023/03/27 06:34:35;;;;;;;12.00;4.22;;;;;;;11.04;71.10;91587.09;5089143;28;20052;-72
2023/03/27 06:37:03;;;;;;;4.93;3.13;;;;;;;11.14;70.13;91576.88;5088823;28;20067;-72
2023/03/27 06:39:31;;;;;;;4.20;2.65;;;;;;;11.23;69.36;91572.78;5088745;28;20550;-73
2023/03/27 06:41:58;;;;;;;5.57;2.75;;;;;;;11.34;69.44;91583.09;5089301;28;20085;-72
2023/03/27 06:44:25;;;;;;;4.97;3.00;;;;;;;11.34;67.87;91577.94;5089117;28;20048;-72
2023/03/27 06:46:52;;;;;;;54.47;41.70;;;;;;;11.21;68.43;91600.53;5088596;28;20089;-72
2023/03/27 06:49:20;;;;;;;9.70;6.28;;;;;;;11.41;68.92;91599.03;5089288;28;20407;-72
2023/03/27 06:51:46;;;;;;;9.35;5.68;;;;;;;11.54;66.94;91597.78;5089243;28;20076;-72
2023/03/27 06:54:13;;;;;;;6.88;3.58;;;;;;;11.72;67.22;91608.59;5088889;28;20097;-72
2023/03/27 06:56:43;;;;;;;7.35;2.50;;;;;;;11.66;62.89;91594.19;5075767;28;20036;-72
2023/03/27 06:59:10;;;;;;;6.25;2.90;;;;;;;11.97;65.11;91612.97;5088925;28;20412;-73
2023/03/27 07:01:36;;;;;;;4.10;2.55;;;;;;;12.08;63.62;91610.44;5089082;28;20074;-72
2023/03/27 07:04:04;;;;;;;5.30;2.78;;;;;;;12.13;62.92;91608.63;5088626;28;20134;-73
2023/03/27 07:06:30;;;;;;;4.10;2.53;;;;;;;12.16;62.35;91607.34;5088366;28;20048;-73
2023/03/27 07:08:57;;;;;;;6.18;2.58;;;;;;;12.28;62.62;91604.50;5089049;28;20113;-72
2023/03/27 07:11:24;;;;;;;5.75;3.20;;;;;;;12.35;60.71;91596.50;5088881;28;20105;-72
2023/03/27 07:13:52;;;;;;;5.57;2.72;;;;;;;12.36;62.21;91596.22;5088892;28;20056;-72
2023/03/27 07:16:19;;;;;;;5.70;2.70;;;;;;;12.49;62.17;91607.81;5094178;28;20056;-72
2023/03/27 07:18:45;;;;;;;6.32;2.72;;;;;;;12.60;61.38;91608.56;5088680;28;20097;-72
2023/03/27 07:21:14;;;;;;;6.68;3.20;;;;;;;12.53;61.31;91611.41;5088533;28;20059;-73
2023/03/27 07:23:40;;;;;;;6.82;4.70;;;;;;;12.63;60.88;91613.19;5080664;28;20786;-73
2023/03/27 07:26:07;;;;;;;6.10;3.25;;;;;;;12.58;60.05;91609.88;5077092;28;20040;-72
2023/03/27 07:28:37;;;;;;;9.63;2.60;;;;;;;12.43;60.20;91607.06;5087566;28;20048;-72
2023/03/27 07:31:09;;;;;;;7.90;4.63;;;;;;;12.46;61.18;91610.91;5088585;28;20152;-72
2023/03/27 07:33:37;;;;;;;9.65;5.50;;;;;;;12.50;62.16;91601.63;5088695;28;20044;-72
2023/03/27 07:36:06;;;;;;;10.05;4.70;;;;;;;12.51;61.06;91598.00;5088301;28;20052;-72
2023/03/27 07:38:33;;;;;;;9.00;5.00;;;;;;;12.54;61.04;91589.75;5088463;28;20086;-72
2023/03/27 07:41:04;;;;;;;5.95;3.40;;;;;;;12.45;59.39;91588.75;5088174;28;20546;-73
2023/03/27 07:43:31;;;;;;;16.77;7.75;;;;;;;12.43;59.63;91588.25;5087829;28;20048;-73
2023/03/27 07:45:58;;;;;;;13.27;7.85;;;;;;;12.48;60.00;91584.88;5088683;28;20044;-73
2023/03/27 07:48:26;;;;;;;7.43;4.40;;;;;;;12.48;60.04;91580.50;5088058;28;20100;-73
2023/03/27 07:50:57;;;;;;;8.93;3.90;;;;;;;12.46;60.32;91579.22;5091779;28;20090;-73
2023/03/27 07:53:24;;;;;;;11.88;7.57;;;;;;;12.50;60.33;91569.97;5091982;28;20159;-72
2023/03/27 07:55:52;;;;;;;12.77;4.10;;;;;;;12.50;60.45;91570.72;5091821;28;20052;-73
2023/03/27 07:58:20;;;;;;;14.07;7.57;;;;;;;12.50;60.22;91583.59;5078941;28;20121;-73
2023/03/27 08:00:49;;;;;;;7.63;3.75;;;;;;;12.50;58.88;91575.88;5087068;28;20105;-73
2023/03/27 08:03:17;;;;;;;11.75;7.25;;;;;;;12.50;59.30;91578.44;5083711;28;20048;-72
2023/03/27 08:05:52;;;;;;;8.93;5.63;;;;;;;12.47;58.87;91573.81;5086625;28;20036;-73
2023/03/27 08:08:18;;;;;;;8.93;4.88;;;;;;;12.42;58.93;91560.97;5084411;28;20052;-73
2023/03/27 08:10:46;;;;;;;11.23;5.95;;;;;;;12.45;58.92;91559.66;5091271;28;20492;-73
2023/03/27 08:13:13;;;;;;;6.47;3.55;;;;;;;12.50;58.77;91554.50;5091733;28;20080;-73
2023/03/27 08:15:39;;;;;;;23.48;11.65;;;;;;;12.49;58.59;91543.41;5091141;28;20044;-72
2023/03/27 08:18:07;;;;;;;55.13;22.50;;;;;;;12.56;58.52;91541.34;5091751;28;20059;-73
2023/03/27 08:20:34;;;;;;;42.65;17.48;;;;;;;12.68;58.66;91541.03;5091242;28;20071;-73
2023/03/27 08:23:03;;;;;;;49.55;20.02;;;;;;;12.67;57.67;91531.00;5091274;28;20054;-73
2023/03/27 08:25:31;;;;;;;30.83;12.55;;;;;;;12.75;57.87;91539.97;5091878;28;20056;-73
2023/03/27 08:27:58;;;;;;;44.38;16.65;;;;;;;12.61;56.91;91524.31;5091108;28;20138;-73
2023/03/27 08:30:26;;;;;;;94.53;34.67;;;;;;;12.67;56.68;91538.72;5090881;28;20044;-73
2023/03/27 08:32:52;;;;;;;24.25;9.40;;;;;;;12.59;56.59;91521.25;5091411;28;20246;-73
2023/03/27 08:35:19;;;;;;;43.30;17.85;;;;;;;12.60;56.60;91539.03;5090848;28;20069;-73
2023/03/27 08:37:46;;;;;;;19.17;8.40;;;;;;;12.59;56.79;91532.31;5091398;28;20044;-73
2023/03/27 08:40:19;;;;;;;67.22;22.92;;;;;;;12.66;55.05;91532.81;5091066;28;20488;-73
2023/03/27 08:42:52;;;;;;;26.42;11.02;;;;;;;12.65;55.61;91536.41;5091241;28;20044;-73
2023/03/27 08:45:24;;;;;;;40.20;17.40;;;;;;;12.74;55.14;91535.88;5091034;28;20048;-73
2023/03/27 08:47:56;;;;;;;29.55;13.15;;;;;;;12.83;55.94;91537.63;5090677;28;20097;-73
2023/03/27 08:50:33;;;;;;;33.42;13.18;;;;;;;12.98;56.06;91525.72;5090699;28;20040;-73
2023/03/27 08:53:01;;;;;;;39.60;15.98;;;;;;;13.01;55.78;91511.53;5090133;28;20044;-73
2023/03/27 08:55:38;;;;;;;14.43;5.43;;;;;;;13.05;55.78;91497.06;5091031;28;20052;-73
2023/03/27 08:58:05;;;;;;;39.92;15.85;;;;;;;13.12;55.59;91504.50;5090425;28;20546;-73
2023/03/27 09:00:38;;;;;;;20.63;9.05;;;;;;;13.22;55.88;91494.91;5090324;28;20086;-73
2023/03/27 09:03:13;;;;;;;31.77;13.18;;;;;;;13.18;54.79;91498.28;5090245;28;20036;-73
2023/03/27 09:05:44;;;;;;;38.03;17.60;;;;;;;13.12;54.55;91505.28;5090537;28;20511;-73
2023/03/27 09:08:21;;;;;;;33.92;13.45;;;;;;;13.19;55.09;91499.84;5077699;28;20043;-73
2023/03/27 09:10:51;;;;;;;9.82;4.85;;;;;;;13.20;54.90;91499.53;5090541;28;20043;-73
2023/03/27 09:13:23;;;;;;;20.88;9.18;;;;;;;13.25;55.05;91505.72;5090852;28;20047;-73
2023/03/27 09:15:57;;;;;;;42.70;17.20;;;;;;;13.22;55.51;91514.75;5090181;28;20086;-73
2023/03/27 09:18:30;;;;;;;37.97;16.50;;;;;;;12.99;58.26;91514.38;5090459;28;20044;-73
2023/03/27 09:21:03;;;;;;;42.50;17.92;;;;;;;12.89;61.01;91537.59;5090362;28;20090;-73
2023/03/27 09:23:34;;;;;;;10.73;5.53;;;;;;;12.74;67.96;91541.81;5090577;28;20044;-73
2023/03/27 09:26:09;;;;;;;15.77;7.85;;;;;;;12.62;71.53;91534.38;5090388;28;20135;-73
2023/03/27 09:28:49;;;;;;;12.15;6.80;;;;;;;12.22;75.20;91502.56;5090012;28;20420;-73
2023/03/27 09:31:23;;;;;;;5.40;3.13;;;;;;;12.14;75.14;91539.91;5090404;28;20079;-73
2023/03/27 09:33:51;;;;;;;6.35;2.70;;;;;;;12.03;76.65;91533.97;5090249;28;20040;-73
2023/03/27 09:36:18;;;;;;;18.95;9.63;;;;;;;11.94;77.09;91536.28;5090338;28;20412;-73
2023/03/27 09:38:49;;;;;;;6.10;3.83;;;;;;;11.93;78.90;91537.31;5081344;28;20045;-72
2023/03/27 09:41:21;;;;;;;13.55;6.72;;;;;;;11.95;77.93;91516.50;5081827;28;20048;-73
2023/03/27 09:43:55;;;;;;;7.20;3.70;;;;;;;11.96;78.18;91507.72;5089857;28;20052;-73
2023/03/27 09:46:25;;;;;;;12.57;6.85;;;;;;;11.96;77.04;91505.16;5089578;28;20048;-73
2023/03/27 09:48:57;;;;;;;12.25;6.18;;;;;;;11.92;75.43;91496.41;5090217;28;20053;-73
2023/03/27 09:51:42;;;;;;;5.18;3.25;;;;;;;11.90;72.48;91501.84;5089292;28;20500;-73
2023/03/27 09:54:11;;;;;;;19.85;10.20;;;;;;;11.98;72.62;91521.88;5089831;28;20044;-73
2023/03/27 09:56:43;;;;;;;17.27;8.80;;;;;;;12.10;73.27;91531.16;5089596;28;20522;-72
2023/03/27 09:59:23;;;;;;;13.27;7.25;;;;;;;11.89;71.56;91492.56;5089430;28;20500;-72
2023/03/27 10:01:51;;;;;;;12.52;7.10;;;;;;;12.16;70.87;91522.38;5089386;28;20052;-73
2023/03/27 10:04:20;;;;;;;17.98;8.88;;;;;;;12.22;70.90;91536.03;5089624;28;20040;-73
2023/03/27 10:06:50;;;;;;;10.15;5.60;;;;;;;12.28;70.80;91542.72;5089173;28;20083;-73
2023/03/27 10:09:25;;;;;;;13.57;7.47;;;;;;;12.29;71.29;91534.72;5089199;28;20056;-73
2023/03/27 10:12:00;;;;;;;11.93;6.30;;;;;;;12.33;73.82;91529.03;5089018;28;20121;-73
2023/03/27 10:14:28;;;;;;;9.38;6.55;;;;;;;12.33;75.83;91526.47;5089581;28;20411;-73
2023/03/27 10:16:55;;;;;;;7.22;5.78;;;;;;;12.33;78.93;91504.09;5089434;28;20093;-73
2023/03/27 10:19:26;;;;;;;9.50;5.63;;;;;;;12.33;79.28;91503.31;5089463;28;20077;-73
2023/03/27 10:21:54;;;;;;;7.60;5.50;;;;;;;12.24;77.61;91488.41;5089491;28;20044;-73
2023/03/27 10:24:30;;;;;;;6.05;3.25;;;;;;;12.35;75.95;91494.28;5088986;28;20052;-74
2023/03/27 10:26:59;;;;;;;6.47;3.55;;;;;;;12.39;75.22;91494.53;5089390;28;20044;-73
2023/03/27 10:29:29;;;;;;;12.95;4.78;;;;;;;12.46;75.03;91489.88;5088802;28;20076;-73
2023/03/27 10:31:57;;;;;;;8.48;4.13;;;;;;;12.35;74.08;91463.38;5089121;28;20052;-73
2023/03/27 10:34:31;;;;;;;7.82;4.60;;;;;;;12.59;71.80;91475.66;5089092;28;20052;-73
2023/03/27 10:37:00;;;;;;;11.80;8.23;;;;;;;12.65;70.42;91469.44;5089329;28;20040;-73
2023/03/27 10:39:29;;;;;;;15.10;8.45;;;;;;;12.73;69.99;91467.34;5088931;28;20056;-73
2023/03/27 10:41:58;;;;;;;13.35;6.00;;;;;;;12.77;67.71;91461.41;5088979;28;20518;-72
2023/03/27 10:44:27;;;;;;;17.75;8.32;;;;;;;12.90;68.00;91470.34;5089225;28;20048;-72
2023/03/27 10:46:54;;;;;;;4.88;3.20;;;;;;;12.94;65.93;91449.97;5089284;28;20132;-73
2023/03/27 10:49:35;;;;;;;9.73;2.97;;;;;;;13.08;66.47;91447.56;5088852;28;20547;-73
2023/03/27 10:52:14;;;;;;;8.73;3.95;;;;;;;13.23;65.12;91460.34;5089141;28;20448;-72
2023/03/27 10:54:46;;;;;;;5.55;2.70;;;;;;;13.28;65.76;91464.69;5088766;28;20055;-73
2023/03/27 10:57:18;;;;;;;17.20;8.05;;;;;;;13.44;65.29;91455.03;5089136;28;20048;-72
2023/03/27 10:59:51;;;;;;;23.00;8.50;;;;;;;13.60;64.08;91457.50;5088896;28;20097;-73
2023/03/27 11:02:22;;;;;;;26.40;11.20;;;;;;;13.70;64.88;91454.84;5088902;28;20113;-72
2023/03/27 11:04:55;;;;;;;25.48;10.77;;;;;;;13.86;64.70;91460.66;5088776;28;20050;-72
2023/03/27 11:07:32;;;;;;;11.25;4.70;;;;;;;13.98;63.86;91449.94;5088820;28;20062;-72
2023/03/27 11:10:03;;;;;;;11.70;4.55;;;;;;;14.10;62.30;91459.88;5088965;28;20063;-73
2023/03/27 11:12:36;;;;;;;10.35;4.10;;;;;;;14.13;64.93;91458.56;5088670;28;20093;-72
2023/03/27 11:15:10;;;;;;;8.07;2.65;;;;;;;14.03;66.46;91487.84;5070626;28;20048;-73
2023/03/27 11:17:40;;;;;;;6.60;3.20;;;;;;;13.63;68.12;91490.50;5086487;28;20484;-73
2023/03/27 11:20:20;;;;;;;5.03;2.63;;;;;;;13.23;71.70;91498.25;5076258;28;20554;-73
2023/03/27 11:22:54;;;;;;;4.97;2.78;;;;;;;12.66;76.02;91480.50;5076158;28;20093;-74
2023/03/27 11:25:30;;;;;;;3.35;2.28;;;;;;;12.18;80.47;91496.41;5091104;28;20526;-73
2023/03/27 11:28:03;;;;;;;;;;;;;;;12.10;88.67;91515.72;5093342;28;20052;-74
2023/03/27 11:30:38;;;;;;;5.20;2.60;;;;;;;11.76;92.33;91504.94;5092671;28;19924;-73
2023/03/27 11:33:23;;;;;;;4.90;3.22;;;;;;;11.65;97.44;91521.41;5090555;28;20058;-73
2023/03/27 11:35:58;;;;;;;5.55;3.35;;;;;;;11.47;98.79;91533.72;5081264;28;20058;-73
2023/03/27 11:38:30;;;;;;;8.13;3.40;;;;;;;11.36;100.00;91557.88;5091775;28;20128;-73
2023/03/27 11:40:56;;;;;;;7.22;3.72;;;;;;;11.30;100.00;91559.66;5092693;28;20052;-73
2023/03/27 11:43:25;;;;;;;6.15;3.63;;;;;;;11.21;100.00;91563.78;5092075;28;20048;-73
2023/03/27 11:46:01;;;;;;;10.38;4.00;;;;;;;11.14;100.00;91568.38;5092127;28;20044;-73
2023/03/27 11:48:45;;;;;;;15.57;7.75;;;;;;;11.17;100.00;91580.72;5091745;28;20101;-73